Humidity-temperature Sensor

Selected Measurement Type: Air Temperature

 
Air Temperature [°C]     6 entries per hour
Showing data from 9/25/2018 (00:00:00 Z) to 9/18/2018 (00:01:00 Z)
Previous Next [ Day | 3-Days | 7-Days ]
First Last
Prev [ Day | 3-Days | 7-Days ] Next
First Last

Start Time:     :
End Time:     :     
Time (in GMT) :00 :50 :40 :30 :20 :10
Previous Next [ Day | 3-Days | 7-Days ]
First Last
Prev [ Day | 3-Days | 7-Days ] Next
First Last


123 => good data
MM => data is determined as missing
-- => data not received/configured
Back to Top Back to Top
9/25/2018 00:00 to 23:10 25.70 25.66 25.75 25.65 25.74 25.71
9/24/2018 23:00 to 22:10 25.69 25.67 25.70 25.69 25.77 25.87
9/24/2018 22:00 to 21:10 25.85 25.68 25.71 25.73 25.65 25.72
9/24/2018 21:00 to 20:10 25.70 25.69 25.87 25.72 25.73 25.61
9/24/2018 20:00 to 19:10 25.78 25.72 25.73 25.77 25.81 25.90
9/24/2018 19:00 to 18:10 25.80 25.88 25.83 25.88 25.83 25.96
9/24/2018 18:00 to 17:10 25.98 25.95 26.06 26.13 25.97 25.99
9/24/2018 17:00 to 16:10 25.95 25.92 26.01 26.05 26.20 26.11
9/24/2018 16:00 to 15:10 26.21 26.18 26.33 26.27 26.27 26.14
9/24/2018 15:00 to 14:10 26.19 26.14 25.99 25.97 25.83 25.66
9/24/2018 14:00 to 13:10 25.65 25.68 25.75 25.70 25.63 25.60
9/24/2018 13:00 to 12:10 25.52 25.54 25.58 25.49 25.59 25.48
9/24/2018 12:00 to 11:10 25.56 25.55 25.52 25.39 25.36 25.43
9/24/2018 11:00 to 10:10 25.42 25.56 25.46 25.36 25.46 25.50
9/24/2018 10:00 to 9:10 25.51 25.70 25.83 25.70 25.58 25.67
9/24/2018 09:00 to 8:10 25.71 25.70 25.83 25.79 25.96 26.02
9/24/2018 08:00 to 7:10 25.98 25.90 25.90 25.74 25.91 25.86
9/24/2018 07:00 to 6:10 26.02 25.94 25.93 26.05 26.01 25.96
9/24/2018 06:00 to 5:10 26.01 25.98 26.05 26.02 25.85 25.80
9/24/2018 05:00 to 4:10 25.80 25.72 25.76 25.90 25.74 25.66
9/24/2018 04:00 to 3:10 25.79 25.77 25.72 25.68 25.67 25.65
9/24/2018 03:00 to 2:10 25.74 25.76 25.78 25.70 25.69 25.70
9/24/2018 02:00 to 1:10 25.71 25.78 25.91 25.78 25.80 25.86
9/24/2018 01:00 to 0:10 25.85 25.79 25.51 25.49 25.15 25.07
9/24/2018 00:00 to 23:10 25.45 25.46 25.49 25.53 25.48 25.39
9/23/2018 23:00 to 22:10 25.44 25.49 25.50 25.55 25.54 25.68
9/23/2018 22:00 to 21:10 25.50 25.60 25.65 25.51 25.49 25.63
9/23/2018 21:00 to 20:10 25.58 25.59 25.14 25.38 25.74 25.71
9/23/2018 20:00 to 19:10 25.73 25.68 25.68 25.68 25.80 25.72
9/23/2018 19:00 to 18:10 25.82 25.73 25.74 25.79 25.79 25.77
9/23/2018 18:00 to 17:10 25.81 25.75 25.80 25.85 25.79 25.78
9/23/2018 17:00 to 16:10 25.92 25.74 25.73 25.97 25.81 25.79
9/23/2018 16:00 to 15:10 25.98 26.06 25.96 25.99 25.94 25.98
9/23/2018 15:00 to 14:10 25.57 25.49 25.33 25.18 25.07 24.97
9/23/2018 14:00 to 13:10 24.99 24.99 24.88 24.92 24.90 24.99
9/23/2018 13:00 to 12:10 24.63 24.55 24.28 24.65 25.14 25.18
9/23/2018 12:00 to 11:10 25.19 25.09 25.05 25.11 24.97 24.93
9/23/2018 11:00 to 10:10 24.93 24.93 24.86 24.89 24.84 24.73
9/23/2018 10:00 to 9:10 24.82 24.84 24.79 25.04 25.20 25.16
9/23/2018 09:00 to 8:10 25.23 25.27 25.20 25.31 25.34 25.34
9/23/2018 08:00 to 7:10 25.43 25.36 25.51 25.46 25.49 25.47
9/23/2018 07:00 to 6:10 25.52 25.47 25.50 25.51 25.55 25.52
9/23/2018 06:00 to 5:10 25.60 25.54 25.60 25.56 25.54 25.54
9/23/2018 05:00 to 4:10 25.50 25.53 25.55 25.51 25.52 25.43
9/23/2018 04:00 to 3:10 25.41 25.45 25.33 25.26 25.15 25.15
9/23/2018 03:00 to 2:10 25.01 24.89 25.18 25.35 25.24 25.32
9/23/2018 02:00 to 1:10 25.08 24.88 24.91 24.97 24.97 24.76
9/23/2018 01:00 to 0:10 24.62 24.45 24.23 24.33 24.52 24.90
9/23/2018 00:00 to 23:10 24.78 24.70 24.59 24.48 24.39 24.80
9/22/2018 23:00 to 22:10 25.00 25.04 25.04 25.00 25.02 24.95
9/22/2018 22:00 to 21:10 24.86 24.55 24.90 25.74 25.67 25.72
9/22/2018 21:00 to 20:10 25.64 25.67 25.58 25.50 25.61 25.57
9/22/2018 20:00 to 19:10 25.49 25.47 25.53 25.37 25.25 25.08
9/22/2018 19:00 to 18:10 24.87 24.64 24.35 24.22 24.30 24.35
9/22/2018 18:00 to 17:10 25.29 25.22 25.21 25.14 24.89 24.72
9/22/2018 17:00 to 16:10 24.66 24.85 25.13 24.96 24.83 24.45
9/22/2018 16:00 to 15:10 25.28 25.10 25.09 25.21 25.09 25.25
9/22/2018 15:00 to 14:10 25.36 25.22 24.93 24.91 24.93 24.91
9/22/2018 14:00 to 13:10 25.00 25.09 25.07 25.10 24.66 24.58
9/22/2018 13:00 to 12:10 24.27 24.54 24.38 24.80 24.87 24.53
9/22/2018 12:00 to 11:10 24.65 24.59 24.07 24.87 25.01 25.01
9/22/2018 11:00 to 10:10 24.18 24.72 24.71 24.49 24.31 24.21
9/22/2018 10:00 to 9:10 24.12 23.84 23.67 24.52 24.39 24.22
9/22/2018 09:00 to 8:10 24.08 24.09 23.77 24.00 24.21 24.94
9/22/2018 08:00 to 7:10 24.88 24.80 24.81 24.80 24.70 24.73
9/22/2018 07:00 to 6:10 24.70 24.61 24.72 24.68 24.82 24.67
9/22/2018 06:00 to 5:10 24.64 24.83 24.72 24.40 24.42 24.44
9/22/2018 05:00 to 4:10 25.08 25.38 25.22 24.97 24.86 24.67
9/22/2018 04:00 to 3:10 24.41 24.41 24.39 24.86 24.67 24.64
9/22/2018 03:00 to 2:10 24.72 24.91 24.83 24.93 25.21 25.17
9/22/2018 02:00 to 1:10 25.17 25.18 25.27 25.38 25.38 25.22
9/22/2018 01:00 to 0:10 25.29 25.32 25.31 25.38 25.32 25.52
9/22/2018 00:00 to 23:10 25.45 25.39 25.37 25.35 25.36 25.34
9/21/2018 23:00 to 22:10 25.35 25.33 25.33 25.40 25.38 25.42
9/21/2018 22:00 to 21:10 25.33 25.37 25.41 25.25 25.27 25.31
9/21/2018 21:00 to 20:10 25.25 25.26 25.06 25.12 25.06 25.07
9/21/2018 20:00 to 19:10 25.09 25.10 24.97 25.10 24.84 25.14
9/21/2018 19:00 to 18:10 25.25 25.31 25.26 25.27 25.22 25.21
9/21/2018 18:00 to 17:10 25.23 25.24 25.27 25.33 25.32 25.35
9/21/2018 17:00 to 16:10 25.38 25.25 25.40 25.28 25.22 25.72
9/21/2018 16:00 to 15:10 25.50 25.49 25.43 25.41 25.37 25.41
9/21/2018 15:00 to 14:10 25.36 25.16 25.30 24.99 24.87 24.92
9/21/2018 14:00 to 13:10 24.86 24.94 25.01 25.02 25.12 24.97
9/21/2018 13:00 to 12:10 25.00 24.95 25.09 25.03 25.12 24.97
9/21/2018 12:00 to 11:10 24.97 24.87 24.86 24.72 24.85 24.88
9/21/2018 11:00 to 10:10 24.90 24.92 24.95 24.88 24.86 24.76
9/21/2018 10:00 to 9:10 24.85 24.87 24.93 24.98 24.90 24.88
9/21/2018 09:00 to 8:10 25.05 25.04 24.93 25.10 25.05 25.18
9/21/2018 08:00 to 7:10 24.94 25.17 25.00 25.10 24.91 25.01
9/21/2018 07:00 to 6:10 25.20 25.17 25.16 25.12 25.10 25.14
9/21/2018 06:00 to 5:10 25.26 25.10 25.03 25.06 24.98 25.01
9/21/2018 05:00 to 4:10 25.17 25.06 25.13 24.95 24.97 25.02
9/21/2018 04:00 to 3:10 25.01 25.03 25.06 24.96 24.93 25.03
9/21/2018 03:00 to 2:10 24.98 24.99 25.00 25.03 24.98 24.96
9/21/2018 02:00 to 1:10 24.96 25.01 25.07 24.96 25.06 25.02
9/21/2018 01:00 to 0:10 25.08 25.15 24.98 24.98 24.96 25.01
9/21/2018 00:00 to 23:10 24.94 24.90 24.95 25.01 24.96 25.07
9/20/2018 23:00 to 22:10 24.87 25.00 25.00 24.97 24.99 25.06
9/20/2018 22:00 to 21:10 25.01 25.03 25.06 25.09 25.04 25.08
9/20/2018 21:00 to 20:10 25.06 25.27 25.23 25.19 25.26 25.31
9/20/2018 20:00 to 19:10 25.29 25.16 25.31 25.21 25.35 25.27
9/20/2018 19:00 to 18:10 25.42 25.26 25.30 25.19 25.24 25.22
9/20/2018 18:00 to 17:10 25.31 25.35 25.36 25.29 25.24 25.17
9/20/2018 17:00 to 16:10 25.26 25.17 25.17 25.19 25.07 25.06
9/20/2018 16:00 to 15:10 25.02 25.12 24.91 25.05 24.98 24.94
9/20/2018 15:00 to 14:10 24.91 24.96 24.89 24.96 24.95 24.87
9/20/2018 14:00 to 13:10 24.89 24.98 25.05 24.91 24.84 24.96
9/20/2018 13:00 to 12:10 24.89 24.93 24.95 24.94 25.07 24.97
9/20/2018 12:00 to 11:10 24.98 24.89 24.98 24.82 24.89 24.92
9/20/2018 11:00 to 10:10 24.76 24.88 24.81 24.89 25.10 24.88
9/20/2018 10:00 to 9:10 24.89 25.08 24.95 24.98 24.93 25.06
9/20/2018 09:00 to 8:10 25.17 25.15 25.11 25.19 25.13 25.07
9/20/2018 08:00 to 7:10 25.13 25.13 25.23 25.25 25.07 25.16
9/20/2018 07:00 to 6:10 25.16 25.27 25.21 25.18 25.06 24.89
9/20/2018 06:00 to 5:10 24.85 24.84 24.57 24.72 25.06 25.08
9/20/2018 05:00 to 4:10 25.08 25.22 25.18 25.19 25.22 25.20
9/20/2018 04:00 to 3:10 25.29 25.25 25.09 25.12 25.10 25.09
9/20/2018 03:00 to 2:10 25.20 25.10 25.21 25.10 25.23 25.17
9/20/2018 02:00 to 1:10 25.20 25.13 25.19 25.38 25.30 25.22
9/20/2018 01:00 to 0:10 25.28 25.15 25.22 25.19 25.38 25.20
9/20/2018 00:00 to 23:10 25.24 25.24 25.27 25.30 25.26 25.45
9/19/2018 23:00 to 22:10 25.39 25.22 25.27 25.40 25.29 25.31
9/19/2018 22:00 to 21:10 25.18 25.25 25.20 25.24 25.12 25.24
9/19/2018 21:00 to 20:10 25.08 25.17 25.04 25.16 25.20 25.12
9/19/2018 20:00 to 19:10 25.16 25.24 25.25 25.16 25.27 25.19
9/19/2018 19:00 to 18:10 25.11 25.14 25.13 25.06 24.96 25.13
9/19/2018 18:00 to 17:10 25.14 25.14 25.29 25.24 25.30 25.25
9/19/2018 17:00 to 16:10 25.33 25.26 25.29 25.34 25.29 25.25
9/19/2018 16:00 to 15:10 25.27 25.22 25.35 25.19 25.12 25.03
9/19/2018 15:00 to 14:10 25.00 24.83 25.02 25.08 24.88 24.75
9/19/2018 14:00 to 13:10 24.60 24.18 23.97 24.06 24.01 24.40
9/19/2018 13:00 to 12:10 24.85 24.62 24.96 24.96 24.25 25.21
9/19/2018 12:00 to 11:10 25.06 24.89 24.72 25.06 24.99 24.71
9/19/2018 11:00 to 10:10 25.02 24.68 24.79 24.80 24.56 24.57
9/19/2018 10:00 to 9:10 24.49 24.48 24.85 24.70 24.82 24.76
9/19/2018 09:00 to 8:10 24.82 24.86 24.81 24.93 24.82 24.88
9/19/2018 08:00 to 7:10 24.89 25.04 24.87 24.88 24.86 24.89
9/19/2018 07:00 to 6:10 24.91 24.80 24.92 25.04 24.70 24.98
9/19/2018 06:00 to 5:10 24.93 25.00 25.05 24.92 24.76 24.78
9/19/2018 05:00 to 4:10 24.65 24.68 24.82 24.79 24.74 24.72
9/19/2018 04:00 to 3:10 24.50 24.29 24.09 23.70 23.42 23.38
9/19/2018 03:00 to 2:10 23.55 24.05 24.37 24.98 24.89 24.67
9/19/2018 02:00 to 1:10 24.91 24.79 24.89 25.08 24.96 24.89
9/19/2018 01:00 to 0:10 24.85 24.91 24.84 24.84 24.80 24.88
9/19/2018 00:00 to 23:10 24.95 25.13 25.08 25.04 25.03 25.16
9/18/2018 23:00 to 22:10 25.16 25.28 25.23 25.14 25.20 25.15
9/18/2018 22:00 to 21:10 25.13 25.14 25.11 25.11 25.09 25.26
9/18/2018 21:00 to 20:10 25.09 25.07 25.14 25.17 25.26 25.19
9/18/2018 20:00 to 19:10 25.12 25.29 25.33 25.28 25.16 25.39
9/18/2018 19:00 to 18:10 25.22 25.14 25.10 25.25 25.23 25.29
9/18/2018 18:00 to 17:10 25.03 25.21 25.30 25.30 25.33 25.25
9/18/2018 17:00 to 16:10 25.29 25.02 24.92 24.96 25.05 24.92
9/18/2018 16:00 to 15:10 25.09 24.92 24.86 25.03 25.20 24.97
9/18/2018 15:00 to 14:10 25.10 24.94 24.92 24.71 24.59 24.54
9/18/2018 14:00 to 13:10 24.67 24.53 24.63 24.53 24.59 24.59
9/18/2018 13:00 to 12:10 24.29 24.13 24.00 24.58 24.49 24.51
9/18/2018 12:00 to 11:10 24.71 24.68 24.78 24.69 24.60 24.67
9/18/2018 11:00 to 10:10 24.64 24.71 24.60 24.52 24.46 24.51
9/18/2018 10:00 to 9:10 24.25 23.89 24.53 24.61 24.58 24.54
9/18/2018 09:00 to 8:10 24.63 24.66 24.69 24.75 24.58 24.75
9/18/2018 08:00 to 7:10 24.85 24.69 24.85 24.79 24.80 24.93
9/18/2018 07:00 to 6:10 24.76 24.76 24.88 24.89 24.90 24.94
9/18/2018 06:00 to 5:10 24.97 24.83 24.46 25.00 24.69 24.83
9/18/2018 05:00 to 4:10 25.00 25.01 24.96 24.96 24.85 24.89
9/18/2018 04:00 to 3:10 25.05 25.01 24.96 24.93 24.93 24.86
9/18/2018 03:00 to 2:10 24.86 24.93 24.88 24.96 24.86 24.73
9/18/2018 02:00 to 1:10 24.89 24.97 25.02 24.98 25.11 25.06
9/18/2018 01:00 to 0:10 25.02 24.88 24.90 24.97 25.00 24.94